This is the latest recevied weather packets stored in our database for station/object KD0KHX-10. If no packets are shown the sender has not sent any weather packets the latest 10 day(s).
| Time | Temp. | Humidity | Pressure | Rain* | Wind** | Luminosity | Snow |
|---|---|---|---|---|---|---|---|
| 1777778237 | 13.33° C | 41% | 1009.9 hPa | 0 mm | - | - | - |
| 1777777938 | 13.89° C | 40% | 1009.8 hPa | 0 mm | - | - | - |
| 1777777772 | 13.89° C | 40% | 1009.8 hPa | 0 mm | - | - | - |
| 1777777203 | 14.44° C | 39% | 1009.8 hPa | 0 mm | - | - | - |
| 1777776903 | 14.44° C | 39% | 1009.8 hPa | 0 mm | - | - | - |
| 1777776738 | 14.44° C | 39% | 1009.8 hPa | 0 mm | - | - | - |
| 1777776273 | 15° C | 38% | 1009.7 hPa | 0 mm | - | - | - |
| 1777775703 | 15.56° C | 36% | 1009.7 hPa | 0 mm | - | - | - |
| 1777775103 | 16.67° C | 34% | 1009.6 hPa | 0 mm | - | - | - |
| 1777773137 | 17.78° C | 31% | 1009.4 hPa | 0 mm | - | - | - |
| 1777769537 | 22.22° C | 24% | 1009.3 hPa | 0 mm | - | - | - |
| 1777769238 | 22.22° C | 23% | 1009.3 hPa | 0 mm | - | - | - |
| 1777768337 | 22.22° C | 24% | 1009.3 hPa | 0 mm | - | - | - |
| 1777764736 | 22.78° C | 25% | 1010 hPa | 0 mm | - | - | - |
| 1777764573 | 22.78° C | 26% | 1010.1 hPa | 0 mm | - | - | - |
| 1777761303 | 22.22° C | 27% | 1010.5 hPa | 0 mm | - | - | - |
| 1777761003 | 22.22° C | 27% | 1010.6 hPa | 0 mm | - | - | - |
| 1777760703 | 22.22° C | 27% | 1010.7 hPa | 0 mm | - | - | - |
| 1777760372 | 21.67° C | 27% | 1010.7 hPa | 0 mm | - | - | - |
| 1777760073 | 21.67° C | 27% | 1010.8 hPa | 0 mm | - | - | - |
| 1777759503 | 22.22° C | 27% | 1011 hPa | 0 mm | - | - | - |
| 1777759037 | 21.67° C | 28% | 1011.3 hPa | 0 mm | - | - | - |
| 1777757972 | 21.11° C | 28% | 1011.5 hPa | 0 mm | - | - | - |
| 1777757103 | 21.11° C | 27% | 1011.9 hPa | 0 mm | - | - | - |
| 1777756637 | 21.11° C | 28% | 1012.1 hPa | 0 mm | - | - | - |
* Rain latest hour (hover to see other rain measurements)
** Current wind speed in m/s (hover to see current wind gust speed)